Latest Weather Observations for Williamson

IDQ60801

Issued at 12:05 pm EST Tuesday 2 September 2014 (issued every 30 minutes, with the page automatically refreshed every 10 minutes)

About weather observations | Map of weather stations | Latest weather observations for QLD | Other Formats
Station Details ID: 033195 Name: WILLIAMSON Lat: -22.47 Lon: 150.18 Height: 27.6 m
Data from the previous 72 hours. | See also: Recent months at Williamson
Date/Time
EST
Temp
°C
App
Temp
°C
Dew
Point
Rel
Hum
%
Delta-T
°C
Wind Press
QNH
hPa
Press
MSL
hPa
Rain
since 9 am
mm
Dir
 
Spd
km/h
Gust
km/h
Spd
kts
Gust
kts
02/12:00pm 25.8 23.7 12.3 43 7.8 WNW 15 24 8 13 1015.4 1015.3 0.0
02/11:30am 25.4 23.2 13.3 47 7.1 WNW 17 22 9 12 1015.9 1015.8 0.0
02/11:00am 24.9 22.6 14.1 51 6.4 WNW 19 28 10 15 1016.3 1016.2 0.0
02/10:30am 24.3 22.9 14.4 54 5.9 NW 15 20 8 11 1016.9 1016.8 0.0
02/10:00am 23.3 21.6 14.6 58 5.1 WNW 17 24 9 13 1017.5 1017.4 0.0
02/09:30am 22.7 21.8 14.8 61 4.7 NNW 13 20 7 11 1017.9 1017.8 0.0
02/09:00am 21.7 21.0 15.3 67 3.8 NNW 13 20 7 11 1018.1 1018.0 0.0
02/08:30am 20.9 20.8 16.1 74 2.9 NNW 11 17 6 9 1018.1 1018.0 0.0
02/08:00am 19.3 20.1 15.8 80 2.1 NNW 6 13 3 7 1018.1 1018.0 0.0
02/07:30am 15.1 16.0 13.0 87 1.2 CALM 0 0 0 0 1017.9 1017.8 0.0
02/07:00am 11.6 11.8 10.5 93 0.6 CALM 0 0 0 0 1017.9 1017.8 0.0
02/06:30am 9.4 9.2 8.9 97 0.2 CALM 0 0 0 0 1017.7 1017.6 0.0
02/06:00am 8.9 8.5 8.1 95 0.4 SSW 0 0 0 0 1017.5 1017.4 0.0
02/05:30am 9.4 9.1 8.6 95 0.4 CALM 0 0 0 0 1017.3 1017.2 0.0
02/05:00am 9.6 9.4 9.0 96 0.3 CALM 0 0 0 0 1017.3 1017.2 0.0
02/04:30am 9.6 9.3 8.8 95 0.4 CALM 0 0 0 0 1017.3 1017.2 0.0
02/04:00am 9.9 9.7 9.1 95 0.4 CALM 0 0 0 0 1017.3 1017.2 0.0
02/03:30am 10.2 10.1 9.4 95 0.4 CALM 0 0 0 0 1017.2 1017.1 0.0
02/03:00am 10.2 10.1 9.3 94 0.4 CALM 0 0 0 0 1017.3 1017.2 0.0
02/02:30am 10.4 10.3 9.6 95 0.4 CALM 0 0 0 0 1017.5 1017.4 0.0
02/02:00am 10.7 10.8 10.1 96 0.3 CALM 0 0 0 0 1017.8 1017.7 0.0
02/01:30am 10.6 9.5 9.8 95 0.4 ENE 6 7 3 4 1017.6 1017.5 0.0
02/01:00am 11.4 11.5 10.3 93 0.6 CALM 0 0 0 0 1018.1 1018.0 0.0
02/12:30am 11.8 12.0 10.5 92 0.7 CALM 0 0 0 0 1018.2 1018.1 0.0
02/12:00am 12.1 12.3 10.7 91 0.7 ESE 0 0 0 0 1018.1 1018.0 0.0
 
Date/Time
EST
Temp
°C
App
Temp
°C
Dew
Point
Rel
Hum
%
Delta-T
°C
Wind Press
QNH
hPa
Press
MSL
hPa
Rain
since 9 am
mm
Dir
 
Spd
km/h
Gust
km/h
Spd
kts
Gust
kts
01/11:30pm 12.5 12.9 11.1 91 0.7 CALM 0 0 0 0 1018.5 1018.4 0.0
01/11:00pm 13.0 13.5 11.7 92 0.7 CALM 0 0 0 0 1018.3 1018.2 0.0
01/10:30pm 13.0 12.6 11.1 88 1.0 NE 4 7 2 4 1018.1 1018.0 0.0
01/10:00pm 13.3 12.6 11.4 88 1.0 ENE 6 7 3 4 1018.5 1018.4 0.0
01/09:30pm 13.4 12.4 10.9 85 1.3 NE 7 7 4 4 1018.5 1018.4 0.0
01/09:00pm 14.2 13.0 11.7 85 1.3 ENE 9 11 5 6 1018.7 1018.6 0.0
01/08:30pm 14.4 14.9 11.6 83 1.5 CALM 0 6 0 3 1018.7 1018.6 0.0
01/08:00pm 14.9 15.3 11.3 79 1.9 CALM 0 0 0 0 1018.5 1018.4 0.0
01/07:30pm 15.9 16.4 11.5 75 2.4 CALM 0 0 0 0 1018.4 1018.3 0.0
01/07:00pm 17.3 17.2 12.0 71 2.9 NE 4 7 2 4 1018.0 1017.9 0.0
01/06:30pm 18.9 18.4 12.2 65 3.7 NE 6 9 3 5 1017.6 1017.5 0.0
01/06:00pm 20.2 19.2 12.4 61 4.4 NE 9 13 5 7 1017.1 1017.0 0.0
01/05:30pm 21.4 19.3 9.6 47 6.3 NNE 11 19 6 10 1017.2 1017.1 0.0
01/05:00pm 22.3 18.8 7.3 38 7.8 NNE 15 24 8 13 1016.9 1016.8 0.0
01/04:30pm 23.1 20.0 7.2 36 8.3 N 13 22 7 12 1016.8 1016.7 0.0
01/04:00pm 24.0 21.0 7.6 35 8.6 NNE 13 24 7 13 1016.3 1016.2 0.0
01/03:30pm 24.2 20.7 7.4 34 8.8 NNE 15 26 8 14 1016.5 1016.4 0.0
01/03:00pm 24.1 20.1 6.8 33 9.0 NE 17 28 9 15 1016.7 1016.6 0.0
01/02:30pm 24.2 19.9 6.9 33 9.0 NNE 19 30 10 16 1017.0 1016.9 0.0
01/02:00pm 24.5 20.2 5.3 29 9.7 NNE 17 32 9 17 1017.2 1017.1 0.0
01/01:30pm 24.9 20.6 5.2 28 10.0 E 17 26 9 14 1017.3 1017.2 0.0
01/01:00pm 24.5 21.0 7.2 33 9.0 NE 15 26 8 14 1017.6 1017.5 0.0
01/12:30pm 24.9 21.3 6.6 31 9.5 ENE 15 33 8 18 1018.2 1018.1 0.0
01/12:00pm 24.8 22.0 5.1 28 9.9 NNE 9 17 5 9 1018.8 1018.7 0.0
01/11:30am 24.9 21.2 4.6 27 10.2 E 13 22 7 12 1019.1 1019.0 0.0
01/11:00am 24.7 22.1 7.8 34 8.9 NE 11 17 6 9 1019.1 1019.0 0.0
01/10:30am 23.9 20.8 7.1 34 8.8 NE 13 20 7 11 1019.2 1019.1 0.0
01/10:00am 23.2 22.6 8.9 40 7.6 SW 2 9 1 5 1019.9 1019.8 0.0
01/09:30am 21.8 20.9 11.5 52 5.7 W 7 11 4 6 1020.4 1020.3 0.0
01/09:00am 20.7 20.8 12.7 60 4.5 WNW 4 7 2 4 1020.7 1020.6 0.0
01/08:30am 18.2 18.8 13.1 72 2.9 SSW 2 6 1 3 1020.5 1020.4 0.0
01/08:00am 15.7 15.3 12.5 81 1.8 S 6 7 3 4 1020.1 1020.0 0.0
01/07:30am 12.6 13.0 11.2 91 0.7 CALM 0 0 0 0 1019.8 1019.7 0.0
01/07:00am 9.8 9.6 8.9 94 0.4 CALM 0 4 0 2 1019.4 1019.3 0.0
01/06:30am 7.8 7.2 7.2 96 0.3 CALM 0 0 0 0 1018.9 1018.8 0.0
01/06:00am 8.0 7.4 7.2 95 0.4 CALM 0 0 0 0 1018.7 1018.6 0.0
01/05:30am 7.9 7.2 7.1 95 0.4 CALM 0 0 0 0 1018.2 1018.1 0.0
01/05:00am 8.5 8.0 7.9 96 0.3 CALM 0 0 0 0 1017.8 1017.7 0.0
01/04:30am 8.7 8.3 8.1 96 0.3 CALM 0 0 0 0 1017.9 1017.8 0.0
01/04:00am 8.9 8.5 8.1 95 0.4 CALM 0 0 0 0 1018.1 1018.0 0.0
01/03:30am 9.0 8.6 8.2 95 0.4 CALM 0 0 0 0 1018.2 1018.1 0.0
01/03:00am 9.4 9.1 8.6 95 0.4 CALM 0 0 0 0 1018.2 1018.1 0.0
01/02:30am 9.8 9.6 9.0 95 0.4 CALM 0 0 0 0 1018.3 1018.2 0.0
01/02:00am 10.1 10.0 9.3 95 0.4 CALM 0 0 0 0 1018.4 1018.3 0.0
01/01:30am 10.1 9.9 9.2 94 0.4 CALM 0 0 0 0 1018.4 1018.3 0.0
01/01:00am 10.3 10.2 9.4 94 0.4 CALM 0 0 0 0 1018.3 1018.2 0.0
01/12:30am 10.6 10.6 9.7 94 0.5 CALM 0 0 0 0 1018.4 1018.3 0.0
01/12:00am 10.5 10.1 9.7 95 0.4 ESE 2 6 1 3 1018.6 1018.5 0.0
 
Date/Time
EST
Temp
°C
App
Temp
°C
Dew
Point
Rel
Hum
%
Delta-T
°C
Wind Press
QNH
hPa
Press
MSL
hPa
Rain
since 9 am
mm
Dir
 
Spd
km/h
Gust
km/h
Spd
kts
Gust
kts
31/11:30pm 10.1 9.2 9.2 94 0.4 ENE 4 9 2 5 1018.6 1018.5 0.0
31/11:00pm 10.8 10.8 9.9 94 0.5 CALM 0 0 0 0 1019.0 1018.9 0.0
31/10:30pm 11.4 11.5 10.3 93 0.6 CALM 0 0 0 0 1019.1 1019.0 0.0
31/10:00pm 11.7 11.9 10.4 92 0.7 CALM 0 0 0 0 1019.0 1018.9 0.0
31/09:30pm 12.5 12.8 10.9 90 0.8 CALM 0 0 0 0 1018.8 1018.7 0.0
31/09:00pm 13.1 13.5 11.3 89 0.9 CALM 0 0 0 0 1018.6 1018.5 0.0
31/08:30pm 13.9 14.4 11.6 86 1.2 CALM 0 0 0 0 1018.2 1018.1 0.0
31/08:00pm 14.9 15.7 12.4 85 1.4 CALM 0 0 0 0 1018.2 1018.1 0.0
31/07:30pm 15.7 16.1 12.6 82 1.7 NE 2 6 1 3 1017.9 1017.8 0.0
31/07:00pm 16.8 17.8 13.1 79 2.1 CALM 0 0 0 0 1017.6 1017.5 0.0
31/06:30pm 17.9 18.3 12.6 71 3.0 NE 2 6 1 3 1017.1 1017.0 0.0
31/06:00pm 19.4 19.0 12.9 66 3.7 NNE 7 13 4 7 1016.6 1016.5 0.0
31/05:30pm 20.4 18.9 11.9 58 4.7 NNE 11 19 6 10 1016.3 1016.2 0.0
31/05:00pm 21.3 19.2 11.1 52 5.6 NNE 13 22 7 12 1016.1 1016.0 0.0
31/04:30pm 22.2 19.3 9.7 45 6.8 NNE 15 22 8 12 1015.7 1015.6 0.0
31/04:00pm 22.5 19.4 10.3 46 6.7 NE 17 28 9 15 1015.5 1015.4 0.0
31/03:30pm 23.0 20.7 10.4 45 6.9 N 13 22 7 12 1015.3 1015.2 0.0
31/03:00pm 24.3 21.6 9.1 38 8.2 NE 13 24 7 13 1015.3 1015.2 0.0
31/02:30pm 23.5 20.6 9.5 41 7.6 NNE 15 26 8 14 1015.6 1015.5 0.0
31/02:00pm 24.7 21.5 9.8 39 8.2 NNE 17 30 9 16 1015.7 1015.6 0.0
31/01:30pm 24.3 22.3 10.2 41 7.8 NNE 11 20 6 11 1016.2 1016.1 0.0
31/01:00pm 25.1 22.9 9.4 37 8.6 WSW 11 20 6 11 1016.7 1016.6 0.0
31/12:30pm 24.8 22.9 11.7 44 7.4 E 13 20 7 11 1017.3 1017.2 0.0
31/12:00pm 25.1 22.8 7.3 32 9.4 W 9 13 5 7 1017.7 1017.6 0.0
31/11:30am 24.5 23.2 9.3 38 8.3 NNE 6 13 3 7 1018.2 1018.1 0.0
31/11:00am 23.2 21.5 9.9 43 7.2 SE 9 13 5 7 1018.7 1018.6 0.0
31/10:30am 22.3 21.0 11.4 50 6.1 WSW 9 17 5 9 1019.1 1019.0 0.0
31/10:00am 21.9 22.6 13.5 59 4.8 NNE 2 7 1 4 1019.5 1019.4 0.0
31/09:30am 20.6 20.5 13.8 65 3.9 W 7 15 4 8 1019.8 1019.7 0.0
31/09:00am 19.4 19.2 14.6 74 2.8 SSW 9 15 5 8 1020.0 1019.9 0.0
31/08:30am 18.2 17.9 14.5 79 2.1 S 9 15 5 8 1019.9 1019.8 0.0
31/08:00am 16.3 16.5 14.7 90 0.9 S 7 11 4 6 1019.8 1019.7 0.0
31/07:30am 13.4 14.3 12.9 97 0.3 CALM 0 6 0 3 1019.5 1019.4 0.0
31/07:00am 10.2 10.1 9.6 96 0.3 CALM 0 0 0 0 1019.1 1019.0 0.0
31/06:30am 8.7 8.3 8.4 98 0.1 CALM 0 0 0 0 1018.7 1018.6 0.0
31/06:00am 8.2 7.6 7.6 96 0.3 CALM 0 0 0 0 1018.4 1018.3 0.0
31/05:30am 8.6 8.1 8.0 96 0.3 CALM 0 0 0 0 1018.1 1018.0 0.0
31/05:00am 8.8 8.3 8.0 95 0.4 CALM 0 0 0 0 1017.8 1017.7 0.0
31/04:30am 9.5 8.9 9.0 97 0.2 S 2 6 1 3 1017.6 1017.5 0.0
31/04:00am 9.5 8.6 9.2 98 0.1 S 4 7 2 4 1017.7 1017.6 0.0
31/03:30am 9.3 9.0 8.7 96 0.3 CALM 0 0 0 0 1017.7 1017.6 0.0
31/03:00am 9.6 9.5 9.3 98 0.1 CALM 0 0 0 0 1017.6 1017.5 0.0
31/02:30am 9.6 9.4 9.1 97 0.2 CALM 0 0 0 0 1017.7 1017.6 0.0
31/02:00am 9.8 9.6 9.2 96 0.3 CALM 0 0 0 0 1017.9 1017.8 0.0
31/01:30am 10.2 10.1 9.6 96 0.3 CALM 0 0 0 0 1018.2 1018.1 0.0
31/01:00am 10.7 10.7 9.9 95 0.4 CALM 0 0 0 0 1018.4 1018.3 0.0
31/12:30am 10.9 11.0 10.0 94 0.5 CALM 0 0 0 0 1018.6 1018.5 0.0
31/12:00am 11.5 11.7 10.6 94 0.5 CALM 0 0 0 0 1018.9 1018.8 0.0
 
Date/Time
EST
Temp
°C
App
Temp
°C
Dew
Point
Rel
Hum
%
Delta-T
°C
Wind Press
QNH
hPa
Press
MSL
hPa
Rain
since 9 am
mm
Dir
 
Spd
km/h
Gust
km/h
Spd
kts
Gust
kts
30/11:30pm 11.9 12.3 11.1 95 0.4 CALM 0 0 0 0 1019.2 1019.1 0.0
30/11:00pm 12.2 11.6 11.6 96 0.3 ENE 6 7 3 4 1019.3 1019.2 0.0
30/10:30pm 12.2 12.6 11.1 93 0.6 CALM 0 0 0 0 1019.2 1019.1 0.0
30/10:00pm 12.8 13.3 11.7 93 0.6 CALM 0 0 0 0 1019.4 1019.3 0.0
30/09:30pm 13.8 14.6 12.5 92 0.7 CALM 0 0 0 0 1019.3 1019.2 0.0
30/09:00pm 14.3 15.2 12.9 91 0.8 CALM 0 0 0 0 1019.2 1019.1 0.0
30/08:30pm 14.9 15.3 13.6 92 0.7 ENE 4 7 2 4 1019.1 1019.0 0.0
30/08:00pm 15.7 16.9 13.7 88 1.1 CALM 0 0 0 0 1019.0 1018.9 0.0
30/07:30pm 16.9 18.2 14.2 84 1.5 CALM 0 0 0 0 1018.5 1018.4 0.0
30/07:00pm 18.1 18.3 14.8 81 1.9 ENE 7 9 4 5 1018.2 1018.1 0.0
30/06:30pm 18.9 19.1 14.8 77 2.4 NE 7 13 4 7 1017.9 1017.8 0.0
30/06:00pm 19.4 19.5 14.4 73 2.9 NNE 7 17 4 9 1017.6 1017.5 0.0
30/05:30pm 20.3 19.1 14.0 67 3.6 NNE 13 20 7 11 1017.2 1017.1 0.0
30/05:00pm 21.2 19.5 13.6 62 4.4 NNE 15 24 8 13 1016.8 1016.7 0.0
30/04:30pm 22.1 19.4 11.8 52 5.8 NE 17 28 9 15 1016.7 1016.6 0.0
30/04:00pm 24.1 22.0 9.7 40 7.9 NNE 11 19 6 10 1016.2 1016.1 0.0
30/03:30pm 24.1 21.9 9.3 39 8.0 NE 11 19 6 10 1016.2 1016.1 0.0
30/03:00pm 24.5 22.2 8.9 37 8.4 NNE 11 19 6 10 1016.4 1016.3 0.0
30/02:30pm 25.7 23.0 7.3 31 9.7 WSW 11 19 6 10 1016.3 1016.2 0.0
30/02:00pm 24.5 21.6 6.7 32 9.2 S 11 19 6 10 1016.7 1016.6 0.0
30/01:30pm 24.5 21.8 7.2 33 9.1 S 11 20 6 11 1017.1 1017.0 0.0
30/01:00pm 24.6 22.0 7.7 34 8.9 SSW 11 20 6 11 1017.7 1017.6 0.0
30/12:30pm 24.3 21.5 7.0 33 9.0 SSW 11 22 6 12 1018.4 1018.3 0.0

Other Formats:

Comma delimited format used in spreadsheet applications
http://www.bom.gov.au/fwo/IDQ60801/IDQ60801.95370.axf

JavaScript Object Notation format (JSON) in row-major order
http://www.bom.gov.au/fwo/IDQ60801/IDQ60801.95370.json